Wetterdaten: Woche 01.07.13 - 07.07.13 (KW27)
Datum Zeit Temp. A. Feuchte A. Luftdruck Regen Wind Richtung Taupunkt Windchill Windben
01.07.2013 00:00 12,5 C 92 % 1017,5 hPa 0,0 l/m 0,2 km/h (0 Bft) N-NW 11,2 C 12,5 C 0,9 km/h (0 Bft)
01.07.2013 01:00 12,3 C 91 % 1017,2 hPa 0,0 l/m 0,0 km/h (0 Bft) N 10,9 C 12,3 C 0,0 km/h (0 Bft)
01.07.2013 02:00 12,7 C 91 % 1016,7 hPa 0,0 l/m 0,0 km/h (0 Bft) N 11,3 C 12,7 C 0,0 km/h (0 Bft)
01.07.2013 03:00 13,0 C 90 % 1016,3 hPa 0,0 l/m 0,1 km/h (0 Bft) N 11,4 C 13,0 C 1,6 km/h (1 Bft)
01.07.2013 04:00 12,3 C 91 % 1015,9 hPa 0,0 l/m 0,0 km/h (0 Bft) N 10,9 C 12,3 C 0,0 km/h (0 Bft)
01.07.2013 05:00 12,0 C 93 % 1015,4 hPa 0,0 l/m 0,0 km/h (0 Bft) N 10,9 C 12,0 C 0,0 km/h (0 Bft)
01.07.2013 06:00 13,5 C 92 % 1015,3 hPa 0,0 l/m 1,4 km/h (1 Bft) S-SW 12,3 C 13,5 C 4,5 km/h (1 Bft)
01.07.2013 07:00 14,7 C 89 % 1015,2 hPa 0,0 l/m 3,2 km/h (1 Bft) S 12,9 C 14,7 C 4,0 km/h (1 Bft)
01.07.2013 08:00 16,5 C 85 % 1015,0 hPa 0,0 l/m 4,6 km/h (1 Bft) S 13,9 C 16,5 C 9,0 km/h (2 Bft)
01.07.2013 09:00 19,2 C 78 % 1014,9 hPa 0,0 l/m 6,9 km/h (2 Bft) SW 15,2 C 18,8 C 14,9 km/h (3 Bft)
01.07.2013 10:00 20,2 C 72 % 1015,0 hPa 0,0 l/m 7,6 km/h (2 Bft) SW 15,0 C 19,7 C 13,3 km/h (3 Bft)
01.07.2013 11:00 20,3 C 71 % 1015,0 hPa 0,0 l/m 8,0 km/h (2 Bft) SW 14,9 C 19,7 C 8,0 km/h (2 Bft)
01.07.2013 12:00 20,9 C 69 % 1015,2 hPa 0,0 l/m 7,8 km/h (2 Bft) SW 15,1 C 20,4 C 10,8 km/h (2 Bft)
01.07.2013 13:00 22,1 C 67 % 1015,3 hPa 0,0 l/m 12,1 km/h (2 Bft) SW 15,7 C 20,4 C 13,2 km/h (3 Bft)
01.07.2013 14:00 22,1 C 67 % 1015,4 hPa 0,0 l/m 11,9 km/h (2 Bft) SW 15,6 C 20,5 C 13,7 km/h (3 Bft)
01.07.2013 15:00 22,3 C 65 % 1015,2 hPa 0,0 l/m 6,1 km/h (2 Bft) W-NW 15,4 C 22,3 C 11,1 km/h (2 Bft)
01.07.2013 16:00 22,5 C 63 % 1015,1 hPa 0,0 l/m 6,3 km/h (2 Bft) W-NW 15,0 C 22,5 C 7,2 km/h (2 Bft)
01.07.2013 17:00 22,6 C 59 % 1014,9 hPa 0,0 l/m 6,0 km/h (2 Bft) W-NW 14,1 C 22,5 C 13,4 km/h (3 Bft)
01.07.2013 18:00 22,6 C 58 % 1014,7 hPa 0,0 l/m 4,8 km/h (1 Bft) NW 14,0 C 22,6 C 12,2 km/h (2 Bft)
01.07.2013 19:00 21,8 C 60 % 1014,5 hPa 0,0 l/m 4,3 km/h (1 Bft) N-NW 13,8 C 21,8 C 7,5 km/h (2 Bft)
01.07.2013 20:00 21,7 C 61 % 1014,4 hPa 0,0 l/m 4,8 km/h (1 Bft) N-NW 13,8 C 21,7 C 4,8 km/h (1 Bft)
01.07.2013 21:00 21,7 C 61 % 1014,6 hPa 0,0 l/m 4,8 km/h (1 Bft) N-NW 13,8 C 21,7 C 4,8 km/h (1 Bft)
01.07.2013 22:00 17,3 C 78 % 1014,8 hPa 0,0 l/m 1,2 km/h (1 Bft) N-NW 13,2 C 17,3 C 1,6 km/h (1 Bft)
01.07.2013 23:00 16,1 C 83 % 1015,0 hPa 0,0 l/m 0,0 km/h (0 Bft) N 13,2 C 16,1 C 0,0 km/h (0 Bft)
02.07.2013 00:00 15,2 C 88 % 1014,8 hPa 0,0 l/m 0,0 km/h (0 Bft) N 13,2 C 15,2 C 0,0 km/h (0 Bft)
02.07.2013 01:00 14,1 C 90 % 1014,3 hPa 0,0 l/m 0,0 km/h (0 Bft) N 12,4 C 14,1 C 0,0 km/h (0 Bft)
02.07.2013 02:00 12,5 C 93 % 1014,1 hPa 0,0 l/m 0,0 km/h (0 Bft) N 11,3 C 12,5 C 0,0 km/h (0 Bft)
02.07.2013 03:00 11,3 C 94 % 1014,2 hPa 0,0 l/m 0,0 km/h (0 Bft) N 10,4 C 11,3 C 0,0 km/h (0 Bft)
02.07.2013 04:00 10,0 C 95 % 1014,5 hPa 0,0 l/m 0,0 km/h (0 Bft) N 9,1 C 10,0 C 0,0 km/h (0 Bft)
02.07.2013 05:00 10,2 C 96 % 1014,6 hPa 0,0 l/m 0,0 km/h (0 Bft) N 9,6 C 10,2 C 0,0 km/h (0 Bft)
02.07.2013 06:00 11,6 C 96 % 1014,6 hPa 0,0 l/m 0,0 km/h (0 Bft) N 11,0 C 11,6 C 0,0 km/h (0 Bft)
02.07.2013 07:00 13,6 C 95 % 1014,9 hPa 0,0 l/m 0,9 km/h (0 Bft) S-SW 12,7 C 13,6 C 3,5 km/h (1 Bft)
02.07.2013 08:00 16,4 C 83 % 1015,2 hPa 0,0 l/m 3,1 km/h (1 Bft) W 13,5 C 16,4 C 9,0 km/h (2 Bft)
02.07.2013 09:00 17,6 C 72 % 1015,4 hPa 0,0 l/m 4,2 km/h (1 Bft) W-NW 12,6 C 17,6 C 9,8 km/h (2 Bft)
02.07.2013 10:00 18,6 C 64 % 1015,5 hPa 0,0 l/m 4,7 km/h (1 Bft) W-NW 11,7 C 18,6 C 11,6 km/h (2 Bft)
02.07.2013 11:00 19,0 C 65 % 1015,4 hPa 0,0 l/m 4,1 km/h (1 Bft) N-NW 12,2 C 19,0 C 9,8 km/h (2 Bft)
02.07.2013 12:00 19,2 C 65 % 1015,4 hPa 0,0 l/m 3,9 km/h (1 Bft) W-NW 12,4 C 19,2 C 9,1 km/h (2 Bft)
02.07.2013 13:00 20,3 C 59 % 1015,1 hPa 0,0 l/m 3,2 km/h (1 Bft) N-NW 12,1 C 20,3 C 9,4 km/h (2 Bft)
02.07.2013 14:00 21,1 C 56 % 1014,8 hPa 0,0 l/m 3,7 km/h (1 Bft) NW 11,9 C 21,1 C 9,3 km/h (2 Bft)
02.07.2013 15:00 21,2 C 56 % 1014,5 hPa 0,0 l/m 3,4 km/h (1 Bft) N-NO 11,9 C 21,2 C 9,1 km/h (2 Bft)
02.07.2013 16:00 22,0 C 52 % 1014,1 hPa 0,0 l/m 3,1 km/h (1 Bft) S-SW 11,8 C 22,0 C 7,8 km/h (2 Bft)
02.07.2013 17:00 22,6 C 52 % 1013,7 hPa 0,0 l/m 2,3 km/h (1 Bft) O-SO 12,2 C 22,6 C 6,3 km/h (2 Bft)
02.07.2013 18:00 22,8 C 50 % 1013,2 hPa 0,0 l/m 1,7 km/h (1 Bft) S-SW 11,7 C 22,8 C 5,8 km/h (2 Bft)
02.07.2013 19:00 21,9 C 53 % 1013,0 hPa 0,0 l/m 0,7 km/h (0 Bft) W-SW 11,9 C 21,9 C 2,5 km/h (1 Bft)
02.07.2013 20:00 19,8 C 67 % 1012,9 hPa 0,0 l/m 0,0 km/h (0 Bft) N 13,3 C 19,8 C 0,0 km/h (0 Bft)
02.07.2013 21:00 19,1 C 69 % 1012,6 hPa 0,0 l/m 0,0 km/h (0 Bft) N 13,3 C 19,1 C 0,0 km/h (0 Bft)
02.07.2013 22:00 19,1 C 69 % 1012,5 hPa 0,0 l/m 0,0 km/h (0 Bft) N 13,3 C 19,1 C 0,0 km/h (0 Bft)
02.07.2013 23:00 19,1 C 69 % 1012,1 hPa 0,0 l/m 0,0 km/h (0 Bft) N 13,3 C 19,1 C 0,0 km/h (0 Bft)
03.07.2013 00:00 19,1 C 69 % 1011,7 hPa 0,0 l/m 0,0 km/h (0 Bft) N 13,3 C 19,1 C 0,0 km/h (0 Bft)
03.07.2013 01:00 19,1 C 69 % 1011,4 hPa 0,0 l/m 0,0 km/h (0 Bft) N 13,3 C 19,1 C 0,0 km/h (0 Bft)
03.07.2013 02:00 19,1 C 69 % 1010,8 hPa 0,0 l/m 0,0 km/h (0 Bft) N 13,3 C 19,1 C 0,0 km/h (0 Bft)
03.07.2013 03:00 17,7 C 74 % 1010,0 hPa 0,0 l/m 0,2 km/h (0 Bft) SO 12,9 C 17,7 C 1,1 km/h (0 Bft)
03.07.2013 04:00 14,7 C 85 % 1009,1 hPa 0,0 l/m 1,7 km/h (1 Bft) O-SO 12,2 C 14,7 C 2,1 km/h (1 Bft)
03.07.2013 05:00 14,7 C 85 % 1008,8 hPa 0,0 l/m 1,6 km/h (1 Bft) O-SO 12,2 C 14,7 C 1,6 km/h (1 Bft)
03.07.2013 06:00 14,7 C 85 % 1008,6 hPa 0,0 l/m 1,6 km/h (1 Bft) O-SO 12,2 C 14,7 C 1,6 km/h (1 Bft)
03.07.2013 07:00 17,0 C 80 % 1008,6 hPa 0,0 l/m 1,3 km/h (1 Bft) O 13,5 C 17,0 C 3,7 km/h (1 Bft)
03.07.2013 08:00 18,5 C 80 % 1008,0 hPa 0,0 l/m 2,4 km/h (1 Bft) O-SO 14,9 C 18,5 C 5,6 km/h (2 Bft)
03.07.2013 09:00 19,9 C 75 % 1008,0 hPa 0,0 l/m 2,8 km/h (1 Bft) S-SW 15,4 C 19,9 C 7,0 km/h (2 Bft)
03.07.2013 10:00 20,3 C 76 % 1008,2 hPa 0,0 l/m 1,2 km/h (1 Bft) SO 15,9 C 20,3 C 4,0 km/h (1 Bft)
03.07.2013 11:00 22,2 C 70 % 1008,1 hPa 0,0 l/m 3,3 km/h (1 Bft) S-SO 16,5 C 22,1 C 7,6 km/h (2 Bft)
03.07.2013 12:00 23,1 C 65 % 1008,2 hPa 0,0 l/m 5,8 km/h (2 Bft) SW 16,2 C 23,1 C 12,2 km/h (2 Bft)
03.07.2013 13:00 23,3 C 65 % 1008,2 hPa 0,0 l/m 4,6 km/h (1 Bft) S 16,2 C 23,3 C 9,9 km/h (2 Bft)
03.07.2013 14:00 24,0 C 64 % 1008,1 hPa 0,0 l/m 5,0 km/h (1 Bft) SW 16,9 C 24,0 C 11,6 km/h (2 Bft)
03.07.2013 15:00 25,0 C 63 % 1008,2 hPa 0,0 l/m 4,4 km/h (1 Bft) S-SW 17,4 C 25,0 C 9,8 km/h (2 Bft)
03.07.2013 16:00 24,7 C 65 % 1008,2 hPa 0,0 l/m 3,4 km/h (1 Bft) SW 17,6 C 24,7 C 7,8 km/h (2 Bft)
03.07.2013 17:00 20,1 C 87 % 1009,0 hPa 7,0 l/m 4,0 km/h (1 Bft) SW 17,9 C 20,1 C 9,2 km/h (2 Bft)
03.07.2013 18:00 21,1 C 88 % 1009,1 hPa 0,0 l/m 2,1 km/h (1 Bft) S-SO 19,0 C 21,1 C 4,7 km/h (1 Bft)
03.07.2013 19:00 21,3 C 87 % 1009,4 hPa 0,0 l/m 1,2 km/h (1 Bft) S-SW 19,1 C 21,3 C 3,3 km/h (1 Bft)
03.07.2013 20:00 20,5 C 89 % 1010,2 hPa 0,0 l/m 0,0 km/h (0 Bft) N 18,5 C 20,5 C 0,3 km/h (0 Bft)
03.07.2013 21:00 19,2 C 91 % 1011,0 hPa 0,0 l/m 0,9 km/h (0 Bft) SW 17,7 C 19,2 C 3,5 km/h (1 Bft)
03.07.2013 22:00 18,2 C 92 % 1012,1 hPa 0,0 l/m 1,4 km/h (1 Bft) SW 16,9 C 18,2 C 4,1 km/h (1 Bft)
03.07.2013 23:00 18,0 C 93 % 1012,6 hPa 0,0 l/m 3,0 km/h (1 Bft) W-SW 16,8 C 18,0 C 3,2 km/h (1 Bft)
04.07.2013 00:00 17,9 C 94 % 1012,9 hPa 0,0 l/m 2,0 km/h (1 Bft) W-SW 16,9 C 17,9 C 3,9 km/h (1 Bft)
04.07.2013 01:00 17,8 C 94 % 1013,4 hPa 0,0 l/m 0,6 km/h (0 Bft) W-NW 16,8 C 17,8 C 2,7 km/h (1 Bft)
04.07.2013 02:00 17,8 C 94 % 1013,9 hPa 0,0 l/m 1,3 km/h (1 Bft) W-SW 16,8 C 17,8 C 1,7 km/h (1 Bft)
04.07.2013 03:00 17,8 C 94 % 1014,1 hPa 0,0 l/m 1,6 km/h (1 Bft) W-SW 16,8 C 17,8 C 1,6 km/h (1 Bft)
04.07.2013 04:00 17,8 C 94 % 1014,7 hPa 0,0 l/m 1,6 km/h (1 Bft) W-SW 16,8 C 17,8 C 1,6 km/h (1 Bft)
04.07.2013 05:00 17,7 C 94 % 1015,3 hPa 0,0 l/m 1,5 km/h (1 Bft) W-SW 16,7 C 17,7 C 1,9 km/h (1 Bft)
04.07.2013 06:00 17,0 C 93 % 1016,1 hPa 0,0 l/m 1,1 km/h (0 Bft) SW 15,9 C 17,0 C 4,5 km/h (1 Bft)
04.07.2013 07:00 17,1 C 93 % 1016,8 hPa 0,0 l/m 1,5 km/h (1 Bft) W 16,0 C 17,1 C 6,0 km/h (2 Bft)
04.07.2013 08:00 17,5 C 92 % 1017,4 hPa 0,0 l/m 1,1 km/h (1 Bft) W 16,1 C 17,5 C 4,5 km/h (1 Bft)
04.07.2013 09:00 17,9 C 90 % 1017,9 hPa 0,0 l/m 1,3 km/h (1 Bft) W-SW 16,3 C 17,9 C 5,2 km/h (1 Bft)
04.07.2013 10:00 19,4 C 84 % 1018,4 hPa 0,0 l/m 2,4 km/h (1 Bft) W-NW 16,5 C 19,4 C 7,1 km/h (2 Bft)
04.07.2013 11:00 20,6 C 78 % 1018,8 hPa 0,0 l/m 3,3 km/h (1 Bft) W 16,7 C 20,6 C 8,0 km/h (2 Bft)
04.07.2013 12:00 22,1 C 70 % 1019,1 hPa 0,0 l/m 4,4 km/h (1 Bft) S-SW 16,3 C 22,1 C 12,5 km/h (2 Bft)
04.07.2013 13:00 21,9 C 70 % 1019,4 hPa 0,0 l/m 3,1 km/h (1 Bft) S-SW 16,1 C 21,9 C 8,4 km/h (2 Bft)
04.07.2013 14:00 22,0 C 69 % 1019,6 hPa 0,0 l/m 4,2 km/h (1 Bft) SW 16,0 C 22,0 C 10,2 km/h (2 Bft)
04.07.2013 15:00 22,2 C 68 % 1019,9 hPa 0,0 l/m 3,9 km/h (1 Bft) W 16,0 C 22,2 C 9,8 km/h (2 Bft)
04.07.2013 16:00 22,4 C 64 % 1019,9 hPa 0,0 l/m 4,0 km/h (1 Bft) W-SW 15,4 C 22,4 C 10,1 km/h (2 Bft)
04.07.2013 17:00 23,6 C 61 % 1019,9 hPa 0,0 l/m 3,8 km/h (1 Bft) SW 15,6 C 23,6 C 10,6 km/h (2 Bft)
04.07.2013 18:00 23,0 C 64 % 1020,0 hPa 0,0 l/m 1,6 km/h (1 Bft) W-SW 15,8 C 23,0 C 5,3 km/h (1 Bft)
04.07.2013 19:00 21,8 C 70 % 1020,5 hPa 0,0 l/m 1,3 km/h (1 Bft) W-NW 16,0 C 21,8 C 4,5 km/h (1 Bft)
04.07.2013 20:00 20,9 C 77 % 1021,0 hPa 0,0 l/m 0,8 km/h (0 Bft) N-NW 16,6 C 20,9 C 3,1 km/h (1 Bft)
04.07.2013 21:00 19,6 C 80 % 1021,6 hPa 0,0 l/m 0,0 km/h (0 Bft) N 16,1 C 19,6 C 0,0 km/h (0 Bft)
04.07.2013 22:00 18,4 C 86 % 1022,2 hPa 0,0 l/m 0,0 km/h (0 Bft) N 16,1 C 18,4 C 0,0 km/h (0 Bft)
04.07.2013 23:00 18,2 C 88 % 1022,5 hPa 0,0 l/m 0,0 km/h (0 Bft) N 16,2 C 18,2 C 0,0 km/h (0 Bft)
05.07.2013 00:00 17,7 C 89 % 1022,8 hPa 0,0 l/m 0,0 km/h (0 Bft) N 15,8 C 17,7 C 0,0 km/h (0 Bft)
05.07.2013 01:00 17,3 C 90 % 1023,1 hPa 0,0 l/m 0,0 km/h (0 Bft) N 15,6 C 17,3 C 0,0 km/h (0 Bft)
05.07.2013 02:00 17,4 C 89 % 1023,3 hPa 0,0 l/m 0,0 km/h (0 Bft) N 15,6 C 17,4 C 0,0 km/h (0 Bft)
05.07.2013 03:00 17,4 C 89 % 1023,5 hPa 0,0 l/m 0,0 km/h (0 Bft) N 15,6 C 17,4 C 0,0 km/h (0 Bft)
05.07.2013 04:00 17,4 C 89 % 1023,7 hPa 0,0 l/m 0,0 km/h (0 Bft) N 15,6 C 17,4 C 0,0 km/h (0 Bft)
05.07.2013 05:00 17,4 C 89 % 1024,2 hPa 0,0 l/m 0,0 km/h (0 Bft) N 15,6 C 17,4 C 0,0 km/h (0 Bft)
05.07.2013 06:00 17,4 C 89 % 1024,8 hPa 0,0 l/m 0,0 km/h (0 Bft) N 15,6 C 17,4 C 0,0 km/h (0 Bft)
05.07.2013 07:00 17,4 C 89 % 1025,2 hPa 0,0 l/m 0,0 km/h (0 Bft) N 15,6 C 17,4 C 0,0 km/h (0 Bft)
05.07.2013 08:00 18,2 C 87 % 1025,8 hPa 0,0 l/m 1,2 km/h (1 Bft) W-SW 15,9 C 18,2 C 3,6 km/h (1 Bft)
05.07.2013 09:00 18,7 C 85 % 1026,4 hPa 0,0 l/m 1,9 km/h (1 Bft) W-SW 16,0 C 18,7 C 5,3 km/h (1 Bft)
05.07.2013 10:00 19,6 C 82 % 1026,7 hPa 0,0 l/m 2,6 km/h (1 Bft) W 16,5 C 19,6 C 7,5 km/h (2 Bft)
05.07.2013 11:00 21,2 C 76 % 1026,7 hPa 0,0 l/m 4,0 km/h (1 Bft) NW 16,8 C 21,2 C 10,2 km/h (2 Bft)
05.07.2013 12:00 22,0 C 71 % 1026,8 hPa 0,0 l/m 3,5 km/h (1 Bft) W-NW 16,4 C 22,0 C 8,8 km/h (2 Bft)
05.07.2013 13:00 22,2 C 70 % 1027,0 hPa 0,0 l/m 4,1 km/h (1 Bft) NW 16,3 C 22,2 C 9,1 km/h (2 Bft)
05.07.2013 14:00 22,7 C 66 % 1027,1 hPa 0,0 l/m 3,9 km/h (1 Bft) N-NW 16,1 C 22,7 C 8,7 km/h (2 Bft)
05.07.2013 15:00 22,9 C 66 % 1027,2 hPa 0,0 l/m 4,2 km/h (1 Bft) NW 16,1 C 22,9 C 9,1 km/h (2 Bft)
05.07.2013 16:00 22,9 C 67 % 1027,2 hPa 0,0 l/m 2,9 km/h (1 Bft) W-NW 16,4 C 22,9 C 6,9 km/h (2 Bft)
05.07.2013 17:00 23,0 C 66 % 1027,2 hPa 0,0 l/m 3,7 km/h (1 Bft) W-NW 16,2 C 23,0 C 9,5 km/h (2 Bft)
05.07.2013 18:00 23,0 C 64 % 1027,3 hPa 0,0 l/m 1,5 km/h (1 Bft) NW 15,7 C 23,0 C 4,4 km/h (1 Bft)
05.07.2013 19:00 23,2 C 65 % 1027,4 hPa 0,0 l/m 0,0 km/h (0 Bft) N 16,2 C 23,2 C 0,0 km/h (0 Bft)
05.07.2013 20:00 23,2 C 65 % 1027,8 hPa 0,0 l/m 0,0 km/h (0 Bft) N 16,2 C 23,2 C 0,0 km/h (0 Bft)
05.07.2013 21:00 23,2 C 65 % 1028,4 hPa 0,0 l/m 0,0 km/h (0 Bft) N 16,2 C 23,2 C 0,0 km/h (0 Bft)
05.07.2013 22:00 23,2 C 65 % 1029,0 hPa 0,0 l/m 0,0 km/h (0 Bft) N 16,2 C 23,2 C 0,0 km/h (0 Bft)
05.07.2013 23:00 23,2 C 65 % 1029,5 hPa 0,0 l/m 0,0 km/h (0 Bft) N 16,2 C 23,2 C 0,0 km/h (0 Bft)
06.07.2013 00:00 23,2 C 65 % 1030,1 hPa 0,0 l/m 0,0 km/h (0 Bft) N 16,2 C 23,2 C 0,0 km/h (0 Bft)
06.07.2013 01:00 23,2 C 65 % 1030,4 hPa 0,0 l/m 0,0 km/h (0 Bft) N 16,2 C 23,2 C 0,0 km/h (0 Bft)
06.07.2013 02:00 23,2 C 65 % 1030,6 hPa 0,0 l/m 0,0 km/h (0 Bft) N 16,2 C 23,2 C 0,0 km/h (0 Bft)
06.07.2013 03:00 23,2 C 65 % 1030,6 hPa 0,0 l/m 0,0 km/h (0 Bft) N 16,2 C 23,2 C 0,0 km/h (0 Bft)
06.07.2013 04:00 22,1 C 67 % 1030,7 hPa 0,0 l/m 0,0 km/h (0 Bft) N 15,7 C 22,1 C 0,0 km/h (0 Bft)
06.07.2013 05:00 9,9 C 94 % 1030,9 hPa 0,0 l/m 0,0 km/h (0 Bft) N 9,0 C 9,9 C 0,0 km/h (0 Bft)
06.07.2013 06:00 11,2 C 93 % 1031,0 hPa 0,0 l/m 0,5 km/h (0 Bft) N-NW 10,1 C 11,2 C 0,9 km/h (0 Bft)
06.07.2013 07:00 13,3 C 89 % 1031,1 hPa 0,0 l/m 2,9 km/h (1 Bft) N-NO 11,5 C 13,3 C 5,2 km/h (1 Bft)
06.07.2013 08:00 15,5 C 79 % 1031,1 hPa 0,0 l/m 2,2 km/h (1 Bft) N-NO 11,9 C 15,5 C 4,9 km/h (1 Bft)
06.07.2013 09:00 17,3 C 70 % 1031,1 hPa 0,0 l/m 1,7 km/h (1 Bft) N-NO 11,7 C 17,3 C 5,7 km/h (2 Bft)
06.07.2013 10:00 18,2 C 63 % 1031,1 hPa 0,0 l/m 2,5 km/h (1 Bft) N-NO 11,1 C 18,2 C 6,9 km/h (2 Bft)
06.07.2013 14:00 22,0 C 54 % 1030,4 hPa 0,0 l/m 4,4 km/h (1 Bft) NW 12,2 C 22,0 C 9,8 km/h (2 Bft)
06.07.2013 15:00 22,6 C 51 % 1030,1 hPa 0,0 l/m 4,9 km/h (1 Bft) N-NO 11,9 C 22,6 C 10,4 km/h (2 Bft)
06.07.2013 16:00 23,1 C 49 % 1029,7 hPa 0,0 l/m 3,8 km/h (1 Bft) NO 11,8 C 23,1 C 8,3 km/h (2 Bft)
06.07.2013 17:00 23,3 C 53 % 1029,5 hPa 0,0 l/m 3,9 km/h (1 Bft) N-NW 13,3 C 23,3 C 8,2 km/h (2 Bft)
06.07.2013 18:00 22,9 C 59 % 1029,3 hPa 0,0 l/m 5,0 km/h (1 Bft) N-NW 14,4 C 22,9 C 9,8 km/h (2 Bft)
06.07.2013 19:00 22,3 C 63 % 1029,3 hPa 0,0 l/m 3,5 km/h (1 Bft) N-NO 15,0 C 22,3 C 7,6 km/h (2 Bft)
06.07.2013 20:00 20,6 C 71 % 1029,4 hPa 0,0 l/m 1,5 km/h (1 Bft) N-NO 15,1 C 20,6 C 2,5 km/h (1 Bft)
06.07.2013 21:00 17,1 C 82 % 1029,5 hPa 0,0 l/m 0,0 km/h (0 Bft) N 13,9 C 17,1 C 0,0 km/h (0 Bft)
06.07.2013 22:00 15,0 C 85 % 1029,9 hPa 0,0 l/m 0,0 km/h (0 Bft) N 12,4 C 15,0 C 0,0 km/h (0 Bft)
06.07.2013 23:00 13,4 C 88 % 1030,4 hPa 0,0 l/m 0,1 km/h (0 Bft) N 11,4 C 13,4 C 0,8 km/h (0 Bft)
07.07.2013 00:00 12,8 C 87 % 1030,7 hPa 0,0 l/m 0,0 km/h (0 Bft) N 10,8 C 12,8 C 0,3 km/h (0 Bft)
07.07.2013 01:00 11,7 C 89 % 1030,8 hPa 0,0 l/m 0,0 km/h (0 Bft) N 9,9 C 11,7 C 0,4 km/h (0 Bft)
07.07.2013 02:00 10,0 C 92 % 1031,0 hPa 0,0 l/m 0,0 km/h (0 Bft) N 8,8 C 10,0 C 0,0 km/h (0 Bft)
07.07.2013 03:00 9,7 C 94 % 1030,9 hPa 0,0 l/m 0,0 km/h (0 Bft) N 8,7 C 9,7 C 0,0 km/h (0 Bft)
07.07.2013 04:00 8,9 C 94 % 1030,8 hPa 0,0 l/m 0,0 km/h (0 Bft) N 8,0 C 8,9 C 0,0 km/h (0 Bft)
07.07.2013 05:00 8,9 C 95 % 1030,7 hPa 0,0 l/m 0,0 km/h (0 Bft) N 8,1 C 8,9 C 0,0 km/h (0 Bft)
07.07.2013 06:00 10,6 C 95 % 1030,8 hPa 0,0 l/m 0,0 km/h (0 Bft) N 9,8 C 10,6 C 0,0 km/h (0 Bft)
07.07.2013 07:00 13,6 C 91 % 1031,2 hPa 0,0 l/m 2,1 km/h (1 Bft) N-NO 12,1 C 13,6 C 4,4 km/h (1 Bft)
07.07.2013 08:00 16,5 C 83 % 1031,4 hPa 0,0 l/m 3,1 km/h (1 Bft) N-NO 13,6 C 16,5 C 6,7 km/h (2 Bft)
07.07.2013 09:00 19,0 C 75 % 1031,6 hPa 0,0 l/m 2,7 km/h (1 Bft) N-NO 14,5 C 19,0 C 6,7 km/h (2 Bft)
07.07.2013 10:00 20,6 C 67 % 1031,7 hPa 0,0 l/m 4,1 km/h (1 Bft) N-NO 14,2 C 20,6 C 9,0 km/h (2 Bft)
07.07.2013 11:00 21,6 C 63 % 1031,8 hPa 0,0 l/m 5,2 km/h (1 Bft) N-NO 14,4 C 21,6 C 10,5 km/h (2 Bft)
07.07.2013 12:00 22,6 C 58 % 1031,7 hPa 0,0 l/m 5,5 km/h (2 Bft) N-NO 13,9 C 22,5 C 10,7 km/h (2 Bft)
07.07.2013 13:00 23,6 C 52 % 1031,4 hPa 0,0 l/m 4,8 km/h (1 Bft) NO 13,3 C 23,6 C 10,5 km/h (2 Bft)
07.07.2013 14:00 24,3 C 53 % 1030,9 hPa 0,0 l/m 4,7 km/h (1 Bft) N-NO 14,1 C 24,3 C 9,8 km/h (2 Bft)
07.07.2013 15:00 24,7 C 54 % 1030,7 hPa 0,0 l/m 5,3 km/h (1 Bft) N-NO 14,7 C 24,6 C 9,8 km/h (2 Bft)
07.07.2013 16:00 24,9 C 51 % 1030,4 hPa 0,0 l/m 5,2 km/h (1 Bft) N-NO 14,0 C 24,8 C 10,6 km/h (2 Bft)
07.07.2013 17:00 25,0 C 50 % 1030,1 hPa 0,0 l/m 5,1 km/h (1 Bft) N-NO 13,8 C 25,0 C 10,8 km/h (2 Bft)
07.07.2013 18:00 24,7 C 51 % 1029,9 hPa 0,0 l/m 4,1 km/h (1 Bft) N-NO 13,9 C 24,6 C 8,7 km/h (2 Bft)
07.07.2013 19:00 23,7 C 55 % 1029,8 hPa 0,0 l/m 3,7 km/h (1 Bft) NO 14,1 C 23,7 C 8,4 km/h (2 Bft)
07.07.2013 20:00 22,3 C 65 % 1029,9 hPa 0,0 l/m 0,7 km/h (0 Bft) N-NO 15,4 C 22,3 C 1,5 km/h (1 Bft)
07.07.2013 21:00 19,3 C 77 % 1030,0 hPa 0,0 l/m 0,0 km/h (0 Bft) N 15,2 C 19,3 C 0,0 km/h (0 Bft)
07.07.2013 22:00 16,4 C 84 % 1030,3 hPa 0,0 l/m 0,0 km/h (0 Bft) N 13,8 C 16,4 C 0,0 km/h (0 Bft)
07.07.2013 23:00 15,0 C 88 % 1030,6 hPa 0,0 l/m 0,0 km/h (0 Bft) N 13,0 C 15,0 C 0,0 km/h (0 Bft)
Min-Datum _ 07.07.13 06.07.13 03.07.13 - 01.07.13 - 07.07.13 07.07.13 01.07.13
_ Min-Zeit 05:00 16:25 08:35 - 00:10 - 04:45 05:00 00:10
Minimum _ 8,6 C 44 % 1007,8 hPa - 0,0 km/h (0 Bft) - 7,8 C 8,6 C 0,0 km/h (0 Bft)
Max-Datum _ 03.07.13 02.07.13 07.07.13 03.07.13 01.07.13 - 03.07.13 03.07.13 01.07.13
_ Max-Zeit 16:30 05:15 11:35 17:05 13:10 - 19:35 16:30 12:50
Maximum _ 25,5 C 96 % 1031,9 hPa 7,0 l/m 12,9 km/h
SW (3 Bft)
- 19,2 C 25,5 C 22,5 km/h
SW (4 Bft)
Durchschnitt _ 18,9 C 76 % 1020,5 hPa #7,0 l/m 2,2 km/h (1 Bft) SW 14,2 C 18,9 C 4,7 km/h (1 Bft)